Time;durP1;ratioP1;P1;durP2;ratioP2;P2;SDS_P1;SDS_P2;PMS_P1;PMS_P2;Temp;Humidity;BMP_temperature;BMP_pressure;BME280_temperature;BME280_humidity;BME280_pressure;Samples;Min_cycle;Max_cycle;Signal;HPM_P1;HPM_P2
2022/07/28 00:01:29;;;;;;;;;2.00;2.00;;;;;;;;5017135;28;45551;-74
2022/07/28 00:03:55;;;;;;;;;1.67;1.67;;;;;;;;5015665;28;47191;-74
2022/07/28 00:06:20;;;;;;;;;1.33;1.33;;;;;;;;5016989;28;45350;-74
2022/07/28 00:08:45;;;;;;;;;1.00;1.00;;;;;;;;5017473;28;45593;-75
2022/07/28 00:11:10;;;;;;;;;1.67;1.33;;;;;;;;5017449;28;45605;-75
2022/07/28 00:13:35;;;;;;;;;2.00;2.00;;;;;;;;5016356;28;47144;-74
2022/07/28 00:16:01;;;;;;;;;2.00;2.00;;;;;;;;5016785;28;45272;-74
2022/07/28 00:18:26;;;;;;;;;3.00;1.00;;;;;;;;5017577;28;45329;-74
2022/07/28 00:20:51;;;;;;;;;1.00;1.00;;;;;;;;5006356;28;45432;-75
2022/07/28 00:23:17;;;;;;;;;3.00;2.00;;;;;;;;5017117;28;45454;-75
2022/07/28 00:25:42;;;;;;;;;1.00;1.00;;;;;;;;5017188;28;45793;-74
2022/07/28 00:28:07;;;;;;;;;1.33;1.33;;;;;;;;5017317;28;45245;-75
2022/07/28 00:30:32;;;;;;;;;2.67;1.00;;;;;;;;5016234;28;45439;-74
2022/07/28 00:32:57;;;;;;;;;4.00;2.00;;;;;;;;5016644;28;45392;-75
2022/07/28 00:35:23;;;;;;;;;1.00;1.00;;;;;;;;5016169;28;45851;-74
2022/07/28 00:37:48;;;;;;;;;3.00;3.00;;;;;;;;5016803;28;45385;-75
2022/07/28 00:40:13;;;;;;;;;2.00;2.00;;;;;;;;5016896;28;45355;-74
2022/07/28 00:42:38;;;;;;;;;1.67;1.67;;;;;;;;5015822;28;46123;-75
2022/07/28 00:45:04;;;;;;;;;1.00;1.00;;;;;;;;5015913;28;45397;-74
2022/07/28 00:47:29;;;;;;;;;1.00;1.00;;;;;;;;5016639;28;45334;-74
2022/07/28 00:49:54;;;;;;;;;1.00;1.00;;;;;;;;5016093;28;45272;-74
2022/07/28 00:52:20;;;;;;;;;1.67;1.00;;;;;;;;5012763;28;45325;-74
2022/07/28 00:54:45;;;;;;;;;1.00;1.00;;;;;;;;5016323;28;45337;-74
2022/07/28 00:57:10;;;;;;;;;2.00;2.00;;;;;;;;5016352;28;45364;-74
2022/07/28 00:59:35;;;;;;;;;2.00;2.00;;;;;;;;5016261;28;45447;-75
2022/07/28 01:02:01;;;;;;;;;2.00;1.00;;;;;;;;5016252;28;46784;-75
2022/07/28 01:04:26;;;;;;;;;2.67;1.67;;;;;;;;5016551;28;45344;-75
2022/07/28 01:07:10;;;;;;;;;1.00;1.00;;;;;;;;5016320;28;45367;-74
2022/07/28 01:09:37;;;;;;;;;0.67;0.67;;;;;;;;5016389;28;45406;-74
2022/07/28 01:12:21;;;;;;;;;0.33;0.33;;;;;;;;5015268;28;46471;-74
2022/07/28 01:14:46;;;;;;;;;2.67;2.67;;;;;;;;5002472;28;45354;-74
2022/07/28 01:17:22;;;;;;;;;2.00;1.00;;;;;;;;5015984;28;45437;-74
2022/07/28 01:19:52;;;;;;;;;2.00;1.33;;;;;;;;5015744;28;45407;-74
2022/07/28 01:22:21;;;;;;;;;2.00;2.00;;;;;;;;5015838;28;46313;-75
2022/07/28 01:24:48;;;;;;;;;1.00;1.00;;;;;;;;5016089;28;45356;-74
2022/07/28 01:27:34;;;;;;;;;1.67;1.67;;;;;;;;5015209;28;45365;-75
2022/07/28 01:30:04;;;;;;;;;1.33;1.33;;;;;;;;4993670;28;45598;-75
2022/07/28 01:32:49;;;;;;;;;4.00;3.00;;;;;;;;4993290;28;47244;-75
2022/07/28 01:35:17;;;;;;;;;2.33;1.00;;;;;;;;4993812;28;45263;-75
2022/07/28 01:37:44;;;;;;;;;0.33;0.33;;;;;;;;4994158;28;45415;-74
2022/07/28 01:40:12;;;;;;;;;1.00;1.00;;;;;;;;4986473;28;45380;-74
2022/07/28 01:42:48;;;;;;;;;1.00;1.00;;;;;;;;4993567;28;47193;-75
2022/07/28 01:45:14;;;;;;;;;3.00;1.00;;;;;;;;4992796;28;45466;-74
2022/07/28 01:47:40;;;;;;;;;2.00;2.00;;;;;;;;4993788;28;45522;-74
2022/07/28 01:50:07;;;;;;;;;4.00;2.00;;;;;;;;4993142;28;45266;-74
2022/07/28 01:52:33;;;;;;;;;3.67;3.00;;;;;;;;4993438;28;47837;-74
2022/07/28 01:55:00;;;;;;;;;0.67;0.67;;;;;;;;4993437;28;45439;-74
2022/07/28 01:57:26;;;;;;;;;2.33;2.33;;;;;;;;4993380;28;45442;-74
2022/07/28 01:59:52;;;;;;;;;2.00;2.00;;;;;;;;4993531;28;45422;-74
2022/07/28 02:02:19;;;;;;;;;1.67;1.67;;;;;;;;4992834;28;47271;-74
2022/07/28 02:04:46;;;;;;;;;2.00;2.00;;;;;;;;4993434;28;45487;-74
2022/07/28 02:07:12;;;;;;;;;2.00;2.00;;;;;;;;4998300;28;45692;-74
2022/07/28 02:09:37;;;;;;;;;4.00;2.00;;;;;;;;5013581;28;45486;-74
2022/07/28 02:12:03;;;;;;;;;2.00;2.00;;;;;;;;5015064;28;45427;-75
2022/07/28 02:14:28;;;;;;;;;2.00;2.00;;;;;;;;5013020;28;45341;-74
2022/07/28 02:16:57;;;;;;;;;2.00;2.00;;;;;;;;5015392;28;45453;-74
2022/07/28 02:19:23;;;;;;;;;1.33;1.33;;;;;;;;5015247;28;46172;-74
2022/07/28 02:21:49;;;;;;;;;2.00;2.00;;;;;;;;5014903;28;47074;-74
2022/07/28 02:24:17;;;;;;;;;1.00;1.00;;;;;;;;5014698;28;45225;-74
2022/07/28 02:26:46;;;;;;;;;3.00;2.00;;;;;;;;5015246;28;45360;-74
2022/07/28 02:29:12;;;;;;;;;2.00;2.00;;;;;;;;5015404;28;45408;-74
2022/07/28 02:31:45;;;;;;;;;1.33;1.33;;;;;;;;5014918;28;46257;-74
2022/07/28 02:34:12;;;;;;;;;1.67;1.67;;;;;;;;5014633;28;45254;-74
2022/07/28 02:36:40;;;;;;;;;2.00;2.00;;;;;;;;5014442;28;45369;-75
2022/07/28 02:39:13;;;;;;;;;2.00;2.00;;;;;;;;5014564;28;45357;-74
2022/07/28 02:41:41;;;;;;;;;1.00;1.00;;;;;;;;5013958;28;45530;-74
2022/07/28 02:44:11;;;;;;;;;1.00;1.00;;;;;;;;5014943;28;45411;-74
2022/07/28 02:46:41;;;;;;;;;1.33;1.33;;;;;;;;5014929;28;45471;-74
2022/07/28 02:49:20;;;;;;;;;2.00;2.00;;;;;;;;5015236;28;45739;-75
2022/07/28 02:51:47;;;;;;;;;1.00;1.00;;;;;;;;5015415;28;47517;-74
2022/07/28 02:54:13;;;;;;;;;1.33;1.33;;;;;;;;5015093;28;45242;-75
2022/07/28 02:56:40;;;;;;;;;2.00;2.00;;;;;;;;5014859;28;45222;-74
2022/07/28 02:59:06;;;;;;;;;2.00;1.33;;;;;;;;5014394;28;45400;-74
2022/07/28 03:01:32;;;;;;;;;2.00;2.00;;;;;;;;5016525;28;45357;-74
2022/07/28 03:03:57;;;;;;;;;1.33;1.33;;;;;;;;5017968;28;45352;-74
2022/07/28 03:06:23;;;;;;;;;2.00;2.00;;;;;;;;5018207;28;45351;-74
2022/07/28 03:08:49;;;;;;;;;3.33;2.00;;;;;;;;5017884;28;45420;-74
2022/07/28 03:11:14;;;;;;;;;2.00;2.00;;;;;;;;5017467;28;45911;-74
2022/07/28 03:13:40;;;;;;;;;1.67;1.67;;;;;;;;5016816;28;45459;-75
2022/07/28 03:16:05;;;;;;;;;1.00;1.00;;;;;;;;5025100;28;45371;-74
2022/07/28 03:18:31;;;;;;;;;2.00;2.00;;;;;;;;5018446;28;45301;-74
2022/07/28 03:20:56;;;;;;;;;1.33;1.33;;;;;;;;5017411;28;45388;-74
2022/07/28 03:23:24;;;;;;;;;2.00;2.00;;;;;;;;5017787;28;45330;-75
2022/07/28 03:25:52;;;;;;;;;1.00;1.00;;;;;;;;5018267;28;45321;-75
2022/07/28 03:28:19;;;;;;;;;2.00;2.00;;;;;;;;5017770;28;45420;-74
2022/07/28 03:30:49;;;;;;;;;1.00;1.00;;;;;;;;5017879;28;46240;-74
2022/07/28 03:33:33;;;;;;;;;1.67;1.67;;;;;;;;5017329;28;45388;-74
2022/07/28 03:36:01;;;;;;;;;1.00;1.00;;;;;;;;5017627;28;45329;-74
2022/07/28 03:38:36;;;;;;;;;2.00;2.00;;;;;;;;5016957;28;45395;-74
2022/07/28 03:41:02;;;;;;;;;1.00;1.00;;;;;;;;5018064;28;45344;-74
2022/07/28 03:43:27;;;;;;;;;1.00;1.00;;;;;;;;5017298;28;45403;-74
2022/07/28 03:45:53;;;;;;;;;1.00;1.00;;;;;;;;5017153;28;45453;-74
2022/07/28 03:48:22;;;;;;;;;3.00;2.00;;;;;;;;5017532;28;45467;-74
2022/07/28 03:50:47;;;;;;;;;1.67;1.67;;;;;;;;5016883;28;47323;-74
2022/07/28 03:53:18;;;;;;;;;2.00;2.00;;;;;;;;5016820;28;45340;-74
2022/07/28 03:55:49;;;;;;;;;4.00;2.00;;;;;;;;5017820;28;45300;-74
2022/07/28 03:58:14;;;;;;;;;4.67;2.67;;;;;;;;5017406;28;45337;-74
2022/07/28 04:00:39;;;;;;;;;2.00;1.67;;;;;;;;5017282;28;45612;-74
2022/07/28 04:03:04;;;;;;;;;1.00;1.00;;;;;;;;5017159;28;45320;-74
2022/07/28 04:05:30;;;;;;;;;2.00;2.00;;;;;;;;5017273;28;45395;-74
2022/07/28 04:07:55;;;;;;;;;3.00;2.33;;;;;;;;5016384;28;45366;-74
2022/07/28 04:10:20;;;;;;;;;2.67;2.67;;;;;;;;5017039;28;45462;-74
2022/07/28 04:12:46;;;;;;;;;1.33;1.33;;;;;;;;5016474;28;45525;-74
2022/07/28 04:15:13;;;;;;;;;2.00;2.00;;;;;;;;5017466;28;45368;-74
2022/07/28 04:17:38;;;;;;;;;2.00;2.00;;;;;;;;5016860;28;45345;-74
2022/07/28 04:20:03;;;;;;;;;2.00;2.00;;;;;;;;5017165;28;45465;-74
2022/07/28 04:22:29;;;;;;;;;3.00;1.00;;;;;;;;5003354;28;45371;-74
2022/07/28 04:24:54;;;;;;;;;2.00;2.00;;;;;;;;5016229;28;45737;-74
2022/07/28 04:27:19;;;;;;;;;1.00;1.00;;;;;;;;5016385;28;45452;-75
2022/07/28 04:29:44;;;;;;;;;1.00;1.00;;;;;;;;5016985;28;46175;-74
2022/07/28 04:32:09;;;;;;;;;1.00;1.00;;;;;;;;5016790;28;45414;-75
2022/07/28 04:34:34;;;;;;;;;1.00;1.00;;;;;;;;5016670;28;45341;-74
2022/07/28 04:37:00;;;;;;;;;2.00;2.00;;;;;;;;5016701;28;45312;-74
2022/07/28 04:39:25;;;;;;;;;2.00;2.00;;;;;;;;5016822;28;47044;-74
2022/07/28 04:41:51;;;;;;;;;1.00;1.00;;;;;;;;5035693;28;45385;-74
2022/07/28 04:44:16;;;;;;;;;1.33;1.33;;;;;;;;5025444;28;45300;-74
2022/07/28 04:46:41;;;;;;;;;2.00;2.00;;;;;;;;5016547;28;45251;-74
2022/07/28 04:49:06;;;;;;;;;1.00;1.00;;;;;;;;5016726;28;46384;-75
2022/07/28 04:51:31;;;;;;;;;2.00;2.00;;;;;;;;5015907;28;45377;-74
2022/07/28 04:53:57;;;;;;;;;1.00;1.00;;;;;;;;5014820;28;45360;-74
2022/07/28 04:56:22;;;;;;;;;1.00;1.00;;;;;;;;5016697;28;45453;-74
2022/07/28 04:58:47;;;;;;;;;1.33;1.33;;;;;;;;5016087;28;46378;-74
2022/07/28 05:01:12;;;;;;;;;1.00;1.00;;;;;;;;5016599;28;45212;-75
2022/07/28 05:03:37;;;;;;;;;0.67;0.67;;;;;;;;5016182;28;45417;-74
2022/07/28 05:06:03;;;;;;;;;1.00;1.00;;;;;;;;5016146;28;45434;-74
2022/07/28 05:08:28;;;;;;;;;1.00;1.00;;;;;;;;5016040;28;46314;-75
2022/07/28 05:10:54;;;;;;;;;1.00;1.00;;;;;;;;5016232;28;45392;-74
2022/07/28 05:13:19;;;;;;;;;2.00;2.00;;;;;;;;5015889;28;45350;-74
2022/07/28 05:15:45;;;;;;;;;2.00;1.67;;;;;;;;5010462;28;45357;-74
2022/07/28 05:18:10;;;;;;;;;2.33;1.67;;;;;;;;5015881;28;45418;-74
2022/07/28 05:20:35;;;;;;;;;1.33;1.33;;;;;;;;5016141;28;45373;-74
2022/07/28 05:23:02;;;;;;;;;1.00;1.00;;;;;;;;5014848;28;45422;-74
2022/07/28 05:25:28;;;;;;;;;2.00;2.00;;;;;;;;5016300;28;45559;-74
2022/07/28 05:27:54;;;;;;;;;1.00;1.00;;;;;;;;5015733;28;46204;-74
2022/07/28 05:30:19;;;;;;;;;0.33;0.33;;;;;;;;5014761;28;45479;-74
2022/07/28 05:32:45;;;;;;;;;1.00;1.00;;;;;;;;5015606;28;45292;-75
2022/07/28 05:35:11;;;;;;;;;2.00;2.00;;;;;;;;5015871;28;45470;-74
2022/07/28 05:37:36;;;;;;;;;0.67;0.67;;;;;;;;5015821;28;45411;-74
2022/07/28 05:40:03;;;;;;;;;1.00;1.00;;;;;;;;5015839;28;45304;-74
2022/07/28 05:42:34;;;;;;;;;1.67;1.67;;;;;;;;5016175;28;45246;-74
2022/07/28 05:44:59;;;;;;;;;2.67;1.00;;;;;;;;5015385;28;45532;-74
2022/07/28 05:47:25;;;;;;;;;1.67;1.00;;;;;;;;5015091;28;46316;-74
2022/07/28 05:49:50;;;;;;;;;1.33;1.33;;;;;;;;5015698;28;45507;-71
2022/07/28 05:52:15;;;;;;;;;1.67;1.00;;;;;;;;5015385;28;45388;-73
2022/07/28 05:54:40;;;;;;;;;1.00;1.00;;;;;;;;5015744;28;45474;-73
2022/07/28 05:57:05;;;;;;;;;1.33;1.33;;;;;;;;5015724;28;46098;-73
2022/07/28 05:59:30;;;;;;;;;1.00;1.00;;;;;;;;5015388;28;45425;-75
2022/07/28 06:01:56;;;;;;;;;1.00;1.00;;;;;;;;5007337;28;45541;-73
2022/07/28 06:04:21;;;;;;;;;2.67;2.00;;;;;;;;5004702;28;46547;-74
2022/07/28 06:06:47;;;;;;;;;1.00;1.00;;;;;;;;5011931;28;46032;-74
2022/07/28 06:09:12;;;;;;;;;0.33;0.33;;;;;;;;5011858;28;45413;-74
2022/07/28 06:11:37;;;;;;;;;0.00;0.00;;;;;;;;5014899;28;45610;-74
2022/07/28 06:14:02;;;;;;;;;0.33;0.33;;;;;;;;5013169;28;45439;-75
2022/07/28 06:16:28;;;;;;;;;1.00;1.00;;;;;;;;5014601;28;45481;-74
2022/07/28 06:18:53;;;;;;;;;3.00;2.00;;;;;;;;5015046;28;45373;-74
2022/07/28 06:21:20;;;;;;;;;1.00;1.00;;;;;;;;5015122;28;45305;-74
2022/07/28 06:23:45;;;;;;;;;2.33;1.00;;;;;;;;5015459;28;45341;-72
2022/07/28 06:26:10;;;;;;;;;0.00;0.00;;;;;;;;5014749;28;46811;-72
2022/07/28 06:28:36;;;;;;;;;0.67;0.67;;;;;;;;5015076;28;45270;-72
2022/07/28 06:31:01;;;;;;;;;1.00;1.00;;;;;;;;5014585;28;45325;-72
2022/07/28 06:33:26;;;;;;;;;1.00;1.00;;;;;;;;5014871;28;45352;-71
2022/07/28 06:35:51;;;;;;;;;1.00;1.00;;;;;;;;5017699;28;45376;-72
2022/07/28 06:38:18;;;;;;;;;2.00;1.67;;;;;;;;5018358;28;45489;-72
2022/07/28 06:40:44;;;;;;;;;0.33;0.33;;;;;;;;5018341;28;45401;-72
2022/07/28 06:43:12;;;;;;;;;0.67;0.33;;;;;;;;5018364;28;45309;-71
2022/07/28 06:45:37;;;;;;;;;1.00;1.00;;;;;;;;5018006;28;46195;-72
2022/07/28 06:48:02;;;;;;;;;3.00;2.00;;;;;;;;5009979;28;45559;-72
2022/07/28 06:50:27;;;;;;;;;1.33;1.00;;;;;;;;5018372;28;45337;-72
2022/07/28 06:52:56;;;;;;;;;0.67;0.67;;;;;;;;5017961;28;46208;-71
2022/07/28 06:55:21;;;;;;;;;2.00;1.00;;;;;;;;5017923;28;45413;-72
2022/07/28 06:57:46;;;;;;;;;1.33;1.33;;;;;;;;5016458;28;45458;-72
2022/07/28 07:00:13;;;;;;;;;2.00;2.00;;;;;;;;5017710;28;45641;-72
2022/07/28 07:02:38;;;;;;;;;1.00;1.00;;;;;;;;5018110;28;45374;-72
2022/07/28 07:05:04;;;;;;;;;0.67;0.67;;;;;;;;5017884;28;46008;-72
2022/07/28 07:07:30;;;;;;;;;0.75;0.75;;;;;;;;5017803;28;45503;-71
2022/07/28 07:09:55;;;;;;;;;0.67;0.33;;;;;;;;5017732;28;45969;-72
2022/07/28 07:12:21;;;;;;;;;1.00;1.00;;;;;;;;5017847;28;45464;-72
2022/07/28 07:14:46;;;;;;;;;0.33;0.33;;;;;;;;5005353;28;46327;-71
2022/07/28 07:17:11;;;;;;;;;1.67;1.67;;;;;;;;5017262;28;45288;-72
2022/07/28 07:19:36;;;;;;;;;2.00;2.00;;;;;;;;5017900;28;45507;-72
2022/07/28 07:22:01;;;;;;;;;1.00;0.33;;;;;;;;5016061;28;45476;-71
2022/07/28 07:24:27;;;;;;;;;1.00;1.00;;;;;;;;5017807;28;45367;-72
2022/07/28 07:26:52;;;;;;;;;2.00;1.67;;;;;;;;5017906;28;45801;-72
2022/07/28 07:29:18;;;;;;;;;1.33;1.33;;;;;;;;5017836;28;45407;-72
2022/07/28 07:31:43;;;;;;;;;2.33;1.67;;;;;;;;5017574;28;45598;-72
2022/07/28 07:34:09;;;;;;;;;1.33;1.00;;;;;;;;5016564;28;46905;-72
2022/07/28 07:36:34;;;;;;;;;1.33;1.33;;;;;;;;5017623;28;45316;-72
2022/07/28 07:38:59;;;;;;;;;1.00;1.00;;;;;;;;5018172;28;45374;-72
2022/07/28 07:41:24;;;;;;;;;2.00;1.00;;;;;;;;5017200;28;45414;-72
2022/07/28 07:43:50;;;;;;;;;1.33;1.33;;;;;;;;5017691;28;45332;-72
2022/07/28 07:46:15;;;;;;;;;1.67;0.67;;;;;;;;5014965;28;45422;-72
2022/07/28 07:48:41;;;;;;;;;1.00;1.00;;;;;;;;5017562;28;45419;-72
2022/07/28 07:51:06;;;;;;;;;1.00;1.00;;;;;;;;5017631;28;45451;-72
2022/07/28 07:53:32;;;;;;;;;1.00;1.00;;;;;;;;5016696;28;45312;-71
2022/07/28 07:55:57;;;;;;;;;3.67;1.00;;;;;;;;5017660;28;45348;-71
2022/07/28 07:58:22;;;;;;;;;2.00;2.00;;;;;;;;5016979;28;45348;-72
2022/07/28 08:00:48;;;;;;;;;1.00;1.00;;;;;;;;5017400;28;45271;-72
2022/07/28 08:03:16;;;;;;;;;1.33;1.33;;;;;;;;5016992;28;45523;-72
2022/07/28 08:05:42;;;;;;;;;1.33;1.33;;;;;;;;5017032;28;45376;-72
2022/07/28 08:08:07;;;;;;;;;4.00;1.67;;;;;;;;5017155;28;45802;-72
2022/07/28 08:10:33;;;;;;;;;2.00;2.00;;;;;;;;5017028;28;45371;-71
2022/07/28 08:12:58;;;;;;;;;1.67;1.67;;;;;;;;5016457;28;45408;-72
2022/07/28 08:15:24;;;;;;;;;1.00;1.00;;;;;;;;5017026;28;45356;-72
2022/07/28 08:17:49;;;;;;;;;1.00;1.00;;;;;;;;5017127;28;45263;-71
2022/07/28 08:20:14;;;;;;;;;1.00;1.00;;;;;;;;5017172;28;45534;-72
2022/07/28 08:22:49;;;;;;;;;1.00;1.00;;;;;;;;5016272;28;45998;-72
2022/07/28 08:25:15;;;;;;;;;2.33;2.33;;;;;;;;5016407;28;45274;-72
2022/07/28 08:27:40;;;;;;;;;1.00;1.00;;;;;;;;5016227;28;45267;-72
2022/07/28 08:30:05;;;;;;;;;1.00;1.00;;;;;;;;5017114;28;45353;-72
2022/07/28 08:32:31;;;;;;;;;1.67;1.67;;;;;;;;5016496;28;45275;-72
2022/07/28 08:34:56;;;;;;;;;1.33;1.33;;;;;;;;5016739;28;45477;-72
2022/07/28 08:37:21;;;;;;;;;2.00;1.33;;;;;;;;5011503;28;45955;-71
2022/07/28 08:39:46;;;;;;;;;2.00;2.00;;;;;;;;5017094;28;45333;-72
2022/07/28 08:42:17;;;;;;;;;1.00;0.33;;;;;;;;5016301;28;46987;-72
2022/07/28 08:44:54;;;;;;;;;1.00;1.00;;;;;;;;5016451;28;45357;-72
2022/07/28 08:47:20;;;;;;;;;1.00;1.00;;;;;;;;5016640;28;45233;-72
2022/07/28 08:49:46;;;;;;;;;2.00;2.00;;;;;;;;5016549;28;45352;-72
2022/07/28 08:52:12;;;;;;;;;1.00;1.00;;;;;;;;5016070;28;46239;-72
2022/07/28 08:54:43;;;;;;;;;1.00;1.00;;;;;;;;5014916;28;45415;-71
2022/07/28 08:57:11;;;;;;;;;1.33;1.33;;;;;;;;5015861;28;45538;-72
2022/07/28 08:59:37;;;;;;;;;2.67;2.33;;;;;;;;5007917;28;45498;-72
2022/07/28 09:02:02;;;;;;;;;1.67;1.67;;;;;;;;5016262;28;45482;-72
2022/07/28 09:04:27;;;;;;;;;1.00;1.00;;;;;;;;5016505;28;45438;-72
2022/07/28 09:06:53;;;;;;;;;0.33;0.33;;;;;;;;5016332;28;45424;-72
2022/07/28 09:09:20;;;;;;;;;1.00;1.00;;;;;;;;5016504;28;45395;-71
2022/07/28 09:11:45;;;;;;;;;1.67;1.67;;;;;;;;5015836;28;45450;-72
2022/07/28 09:14:10;;;;;;;;;0.00;0.00;;;;;;;;5016164;28;46795;-72
2022/07/28 09:16:36;;;;;;;;;1.00;1.00;;;;;;;;5016295;28;45352;-72
2022/07/28 09:19:01;;;;;;;;;2.00;2.00;;;;;;;;5015550;28;45476;-71
2022/07/28 09:21:27;;;;;;;;;1.00;1.00;;;;;;;;5014615;28;46396;-72
2022/07/28 09:23:52;;;;;;;;;0.67;0.67;;;;;;;;5016061;28;45319;-72
2022/07/28 09:26:17;;;;;;;;;2.00;2.00;;;;;;;;5015669;28;45344;-72
2022/07/28 09:28:47;;;;;;;;;1.00;1.00;;;;;;;;5015984;28;45399;-72
2022/07/28 09:31:13;;;;;;;;;0.33;0.33;;;;;;;;5015849;28;47562;-72
2022/07/28 09:33:38;;;;;;;;;1.00;1.00;;;;;;;;5015790;28;45352;-71
2022/07/28 09:36:11;;;;;;;;;1.00;1.00;;;;;;;;5015828;28;45595;-72
2022/07/28 09:38:40;;;;;;;;;1.00;1.00;;;;;;;;5002372;28;45360;-72
2022/07/28 09:41:06;;;;;;;;;1.00;1.00;;;;;;;;5015336;28;46016;-72
2022/07/28 09:43:36;;;;;;;;;1.00;1.00;;;;;;;;5015448;28;45363;-72
2022/07/28 09:46:02;;;;;;;;;1.33;1.33;;;;;;;;5016036;28;45333;-71
2022/07/28 09:48:27;;;;;;;;;0.00;0.00;;;;;;;;5015581;28;45486;-71
2022/07/28 09:51:07;;;;;;;;;2.00;2.00;;;;;;;;5015701;28;45474;-71
2022/07/28 09:53:33;;;;;;;;;0.33;0.33;;;;;;;;5015323;28;45446;-71
2022/07/28 09:56:00;;;;;;;;;1.33;1.00;;;;;;;;5015327;28;45558;-71
2022/07/28 09:58:26;;;;;;;;;1.00;1.00;;;;;;;;5014150;28;45541;-71
2022/07/28 10:01:00;;;;;;;;;1.00;1.00;;;;;;;;5015462;28;45326;-72
2022/07/28 10:03:26;;;;;;;;;1.00;1.00;;;;;;;;5015346;28;45377;-72
2022/07/28 10:05:51;;;;;;;;;1.33;1.33;;;;;;;;5015338;28;45508;-72
2022/07/28 10:08:16;;;;;;;;;0.33;0.33;;;;;;;;5015083;28;45333;-71
2022/07/28 10:10:41;;;;;;;;;1.00;1.00;;;;;;;;5014442;28;47126;-71
2022/07/28 10:13:07;;;;;;;;;1.33;1.33;;;;;;;;5015570;28;45377;-71
2022/07/28 10:18:16;;;;;;;;;0.33;0.33;;;;;;;;5002476;28;45333;-72
2022/07/28 10:20:43;;;;;;;;;0.33;0.33;;;;;;;;5015423;28;45433;-72
2022/07/28 10:23:12;;;;;;;;;2.00;1.00;;;;;;;;5014381;28;45424;-72
2022/07/28 10:25:38;;;;;;;;;1.00;1.00;;;;;;;;5015300;28;45364;-72
2022/07/28 10:28:04;;;;;;;;;2.00;2.00;;;;;;;;5015013;28;45398;-72
2022/07/28 10:30:33;;;;;;;;;0.67;0.67;;;;;;;;5014916;28;46141;-71
2022/07/28 10:33:01;;;;;;;;;1.67;1.67;;;;;;;;5014819;28;45356;-71
2022/07/28 10:35:26;;;;;;;;;2.67;1.00;;;;;;;;5015216;28;45377;-71
2022/07/28 10:37:58;;;;;;;;;0.67;0.67;;;;;;;;5014632;28;45378;-72
2022/07/28 10:40:26;;;;;;;;;1.00;1.00;;;;;;;;5015366;28;45397;-72
2022/07/28 10:42:52;;;;;;;;;1.00;1.00;;;;;;;;5014388;28;45887;-71
2022/07/28 10:45:17;;;;;;;;;1.00;1.00;;;;;;;;5015077;28;45285;-71
2022/07/28 10:47:42;;;;;;;;;0.67;0.67;;;;;;;;5015334;28;45423;-72
2022/07/28 10:50:08;;;;;;;;;0.00;0.00;;;;;;;;5014467;28;46196;-72
2022/07/28 10:52:34;;;;;;;;;0.67;0.67;;;;;;;;5014438;28;45556;-71
2022/07/28 10:55:11;;;;;;;;;1.67;1.00;;;;;;;;5014872;28;45503;-71
2022/07/28 10:57:40;;;;;;;;;2.00;2.00;;;;;;;;5015081;28;45535;-72
2022/07/28 11:00:20;;;;;;;;;1.33;1.33;;;;;;;;5014639;28;46231;-71
2022/07/28 11:02:47;;;;;;;;;1.33;1.33;;;;;;;;5012967;28;45437;-72
2022/07/28 11:05:27;;;;;;;;;1.33;1.33;;;;;;;;5014529;28;45532;-72
2022/07/28 11:07:52;;;;;;;;;1.00;1.00;;;;;;;;5014663;28;45459;-71
2022/07/28 11:10:19;;;;;;;;;2.67;1.33;;;;;;;;5013011;28;45377;-71
2022/07/28 11:12:48;;;;;;;;;1.00;1.00;;;;;;;;5013109;28;45380;-71
2022/07/28 11:15:31;;;;;;;;;2.67;2.00;;;;;;;;5006467;28;45364;-71
2022/07/28 11:18:06;;;;;;;;;1.00;1.00;;;;;;;;5011129;28;45357;-72
2022/07/28 11:20:59;;;;;;;;;1.33;1.33;;;;;;;;5013976;28;46220;-72
2022/07/28 11:23:36;;;;;;;;;1.00;1.00;;;;;;;;5022073;28;45437;-72
2022/07/28 11:26:19;;;;;;;;;0.67;0.67;;;;;;;;5023249;28;45225;-72
2022/07/28 11:29:02;;;;;;;;;1.00;1.00;;;;;;;;5016624;28;45395;-72
2022/07/28 11:31:42;;;;;;;;;0.67;0.67;;;;;;;;5017546;28;46061;-72
2022/07/28 11:34:09;;;;;;;;;1.00;1.00;;;;;;;;5017405;28;45499;-70
2022/07/28 11:36:55;;;;;;;;;2.33;1.00;;;;;;;;5016907;28;45444;-70
2022/07/28 11:39:21;;;;;;;;;0.33;0.33;;;;;;;;5017776;28;45473;-71
2022/07/28 11:41:46;;;;;;;;;1.00;1.00;;;;;;;;5017595;28;45430;-71
2022/07/28 11:44:22;;;;;;;;;1.00;1.00;;;;;;;;5017105;28;45457;-71
2022/07/28 11:46:47;;;;;;;;;1.00;1.00;;;;;;;;5017752;28;45403;-70
2022/07/28 11:49:13;;;;;;;;;1.00;1.00;;;;;;;;5017464;28;45372;-71
2022/07/28 11:51:38;;;;;;;;;1.00;1.00;;;;;;;;5017084;28;46281;-70
2022/07/28 11:54:14;;;;;;;;;2.33;2.00;;;;;;;;5017182;28;45463;-70
2022/07/28 11:56:39;;;;;;;;;1.00;1.00;;;;;;;;5017292;28;45328;-71
2022/07/28 11:59:05;;;;;;;;;2.00;2.00;;;;;;;;5017231;28;45269;-72
2022/07/28 12:01:32;;;;;;;;;2.00;2.00;;;;;;;;5017322;28;47149;-70
2022/07/28 12:04:00;;;;;;;;;2.67;2.33;;;;;;;;5017179;28;45275;-71
2022/07/28 12:06:35;;;;;;;;;3.00;2.00;;;;;;;;5016824;28;45925;-72
2022/07/28 12:09:03;;;;;;;;;1.00;1.00;;;;;;;;5017016;28;45598;-71
2022/07/28 12:11:32;;;;;;;;;1.00;1.00;;;;;;;;5016930;28;45502;-71
2022/07/28 12:14:04;;;;;;;;;2.00;1.00;;;;;;;;5017457;28;45411;-72
2022/07/28 12:16:31;;;;;;;;;0.00;0.00;;;;;;;;5017120;28;45413;-72
2022/07/28 12:18:56;;;;;;;;;1.00;1.00;;;;;;;;5016887;28;45393;-72
2022/07/28 12:21:37;;;;;;;;;0.00;0.00;;;;;;;;5015580;28;45311;-72
2022/07/28 12:24:03;;;;;;;;;1.00;1.00;;;;;;;;5016913;28;45251;-72
2022/07/28 12:26:29;;;;;;;;;2.00;2.00;;;;;;;;5017079;28;45353;-71
2022/07/28 12:28:55;;;;;;;;;1.00;1.00;;;;;;;;5016931;28;45491;-72
2022/07/28 12:31:24;;;;;;;;;1.00;1.00;;;;;;;;5016562;28;46158;-72
2022/07/28 12:33:51;;;;;;;;;0.67;0.67;;;;;;;;5016058;28;45436;-72
2022/07/28 12:36:18;;;;;;;;;2.00;2.00;;;;;;;;5016567;28;45403;-71
2022/07/28 12:38:44;;;;;;;;;1.33;0.33;;;;;;;;5016995;28;45606;-71
2022/07/28 12:41:13;;;;;;;;;1.00;1.00;;;;;;;;5016770;28;46443;-72
2022/07/28 12:43:38;;;;;;;;;0.67;0.67;;;;;;;;5016203;28;45270;-72
2022/07/28 12:46:03;;;;;;;;;1.00;1.00;;;;;;;;5016893;28;45312;-71
2022/07/28 12:48:29;;;;;;;;;1.00;1.00;;;;;;;;5019824;28;45261;-71
2022/07/28 12:50:54;;;;;;;;;2.00;2.00;;;;;;;;5026947;28;47077;-72
2022/07/28 12:53:21;;;;;;;;;1.00;1.00;;;;;;;;5016146;28;45463;-71
2022/07/28 12:55:47;;;;;;;;;1.00;1.00;;;;;;;;5016860;28;45475;-71
2022/07/28 12:58:28;;;;;;;;;1.00;1.00;;;;;;;;5015073;28;45413;-71
2022/07/28 13:00:53;;;;;;;;;1.00;1.00;;;;;;;;5004124;28;45316;-72
2022/07/28 13:03:20;;;;;;;;;1.00;1.00;;;;;;;;5016056;28;45404;-72
2022/07/28 13:06:03;;;;;;;;;1.00;1.00;;;;;;;;5016598;28;45405;-72
2022/07/28 13:08:38;;;;;;;;;2.67;1.67;;;;;;;;5016431;28;45423;-72
2022/07/28 13:11:03;;;;;;;;;2.67;2.67;;;;;;;;5016009;28;47223;-72
2022/07/28 13:13:28;;;;;;;;;2.33;1.33;;;;;;;;5016047;28;45336;-72
2022/07/28 13:16:12;;;;;;;;;1.00;1.00;;;;;;;;5016194;28;45409;-71
2022/07/28 13:18:48;;;;;;;;;2.00;1.00;;;;;;;;5016052;28;45416;-72
2022/07/28 13:21:15;;;;;;;;;0.67;0.67;;;;;;;;5015544;28;45336;-71
2022/07/28 13:23:40;;;;;;;;;2.00;1.00;;;;;;;;5015400;28;45477;-71
2022/07/28 13:26:06;;;;;;;;;1.00;1.00;;;;;;;;5015862;28;45318;-71
2022/07/28 13:28:31;;;;;;;;;0.67;0.67;;;;;;;;5016151;28;45460;-72
2022/07/28 13:30:56;;;;;;;;;2.00;2.00;;;;;;;;5016300;28;46374;-72
2022/07/28 13:33:22;;;;;;;;;1.00;1.00;;;;;;;;5015032;28;45579;-71
2022/07/28 13:35:49;;;;;;;;;2.67;1.00;;;;;;;;5014897;28;45579;-71
2022/07/28 13:38:14;;;;;;;;;1.00;1.00;;;;;;;;5016033;28;45333;-72
2022/07/28 13:40:40;;;;;;;;;0.67;0.67;;;;;;;;5015734;28;46314;-71
2022/07/28 13:43:06;;;;;;;;;0.67;0.67;;;;;;;;5015893;28;45381;-71
2022/07/28 13:45:33;;;;;;;;;2.00;2.00;;;;;;;;5015032;28;45436;-71
2022/07/28 13:47:58;;;;;;;;;0.33;0.33;;;;;;;;5015235;28;45394;-71
2022/07/28 13:50:23;;;;;;;;;1.00;1.00;;;;;;;;5014242;28;46247;-71
2022/07/28 13:52:48;;;;;;;;;1.67;1.67;;;;;;;;5015575;28;45298;-71
2022/07/28 13:55:14;;;;;;;;;2.00;2.00;;;;;;;;5015660;28;45413;-72
2022/07/28 13:57:39;;;;;;;;;2.33;1.00;;;;;;;;5008289;28;45487;-71
2022/07/28 14:00:05;;;;;;;;;1.00;1.00;;;;;;;;5010514;28;45410;-71
2022/07/28 14:02:31;;;;;;;;;1.00;1.00;;;;;;;;5015314;28;45401;-71
2022/07/28 14:04:56;;;;;;;;;1.00;1.00;;;;;;;;5015715;28;45382;-71
2022/07/28 14:07:21;;;;;;;;;1.00;1.00;;;;;;;;5014774;28;45396;-71
2022/07/28 14:09:48;;;;;;;;;1.33;1.33;;;;;;;;5015397;28;46396;-72
2022/07/28 14:12:14;;;;;;;;;1.67;1.67;;;;;;;;5015060;28;45423;-71
2022/07/28 14:14:39;;;;;;;;;1.00;1.00;;;;;;;;5015516;28;45365;-71
2022/07/28 14:17:05;;;;;;;;;0.33;0.33;;;;;;;;5015378;28;45522;-72
2022/07/28 14:19:31;;;;;;;;;2.00;2.00;;;;;;;;5015053;28;46213;-72
2022/07/28 14:21:57;;;;;;;;;1.00;1.00;;;;;;;;5015641;28;45258;-71
2022/07/28 14:24:22;;;;;;;;;1.00;1.00;;;;;;;;5014716;28;45442;-71
2022/07/28 14:26:48;;;;;;;;;1.00;1.00;;;;;;;;5014967;28;45470;-72
2022/07/28 14:29:13;;;;;;;;;2.00;0.33;;;;;;;;5015006;28;45258;-71
2022/07/28 14:31:38;;;;;;;;;1.00;1.00;;;;;;;;5014963;28;45347;-72
2022/07/28 14:34:03;;;;;;;;;1.00;1.00;;;;;;;;5015246;28;45341;-71
2022/07/28 14:36:29;;;;;;;;;1.00;1.00;;;;;;;;5015261;28;45475;-71
2022/07/28 14:38:54;;;;;;;;;1.00;1.00;;;;;;;;5015090;28;46397;-71
2022/07/28 14:41:20;;;;;;;;;1.00;1.00;;;;;;;;5014859;28;45345;-71
2022/07/28 14:43:45;;;;;;;;;0.00;0.00;;;;;;;;5014956;28;45327;-72
2022/07/28 14:46:10;;;;;;;;;0.00;0.00;;;;;;;;5015267;28;45356;-72